sensor_id;sensor_type;location;lat;lon;timestamp;P1;durP1;ratioP1;P2;durP2;ratioP2
80255;SDS011;69564;37.974;23.708;2023-05-10T00:00:12;3.90;;;3.25;;
80255;SDS011;69564;37.974;23.708;2023-05-10T00:02:38;3.90;;;3.60;;
80255;SDS011;69564;37.974;23.708;2023-05-10T00:05:05;6.47;;;3.58;;
80255;SDS011;69564;37.974;23.708;2023-05-10T00:07:31;4.53;;;3.08;;
80255;SDS011;69564;37.974;23.708;2023-05-10T00:09:57;4.35;;;3.47;;
80255;SDS011;69564;37.974;23.708;2023-05-10T00:12:23;3.53;;;3.22;;
80255;SDS011;69564;37.974;23.708;2023-05-10T00:14:49;3.53;;;3.22;;
80255;SDS011;69564;37.974;23.708;2023-05-10T00:17:14;5.78;;;4.03;;
80255;SDS011;69564;37.974;23.708;2023-05-10T00:19:40;4.32;;;3.92;;
80255;SDS011;69564;37.974;23.708;2023-05-10T00:22:06;3.75;;;3.45;;
80255;SDS011;69564;37.974;23.708;2023-05-10T00:24:31;4.18;;;3.78;;
80255;SDS011;69564;37.974;23.708;2023-05-10T00:26:57;4.57;;;3.38;;
80255;SDS011;69564;37.974;23.708;2023-05-10T00:29:23;3.78;;;3.35;;
80255;SDS011;69564;37.974;23.708;2023-05-10T00:31:49;4.47;;;4.00;;
80255;SDS011;69564;37.974;23.708;2023-05-10T00:34:14;3.92;;;3.53;;
80255;SDS011;69564;37.974;23.708;2023-05-10T00:36:40;3.83;;;3.53;;
80255;SDS011;69564;37.974;23.708;2023-05-10T00:39:06;3.90;;;3.60;;
80255;SDS011;69564;37.974;23.708;2023-05-10T00:41:32;3.90;;;3.50;;
80255;SDS011;69564;37.974;23.708;2023-05-10T00:43:58;3.60;;;3.30;;
80255;SDS011;69564;37.974;23.708;2023-05-10T00:46:24;4.38;;;3.65;;
80255;SDS011;69564;37.974;23.708;2023-05-10T00:48:50;4.95;;;3.80;;
80255;SDS011;69564;37.974;23.708;2023-05-10T00:51:17;4.18;;;3.58;;
80255;SDS011;69564;37.974;23.708;2023-05-10T00:53:43;4.40;;;3.88;;
80255;SDS011;69564;37.974;23.708;2023-05-10T00:56:13;5.03;;;3.65;;
80255;SDS011;69564;37.974;23.708;2023-05-10T00:58:42;5.18;;;3.80;;
80255;SDS011;69564;37.974;23.708;2023-05-10T01:01:08;4.28;;;3.08;;
80255;SDS011;69564;37.974;23.708;2023-05-10T01:03:35;3.67;;;3.33;;
80255;SDS011;69564;37.974;23.708;2023-05-10T01:06:01;4.40;;;3.58;;
80255;SDS011;69564;37.974;23.708;2023-05-10T01:08:28;4.25;;;3.28;;
80255;SDS011;69564;37.974;23.708;2023-05-10T01:10:54;4.38;;;3.38;;
80255;SDS011;69564;37.974;23.708;2023-05-10T01:13:29;4.57;;;3.13;;
80255;SDS011;69564;37.974;23.708;2023-05-10T01:15:56;3.80;;;3.05;;
80255;SDS011;69564;37.974;23.708;2023-05-10T01:18:22;3.55;;;3.05;;
80255;SDS011;69564;37.974;23.708;2023-05-10T01:20:52;3.40;;;3.00;;
80255;SDS011;69564;37.974;23.708;2023-05-10T01:23:45;3.70;;;2.75;;
80255;SDS011;69564;37.974;23.708;2023-05-10T01:32:21;3.28;;;2.90;;
80255;SDS011;69564;37.974;23.708;2023-05-10T01:35:00;4.25;;;2.80;;
80255;SDS011;69564;37.974;23.708;2023-05-10T01:37:37;2.63;;;2.25;;
80255;SDS011;69564;37.974;23.708;2023-05-10T01:40:19;5.05;;;3.00;;
80255;SDS011;69564;37.974;23.708;2023-05-10T01:42:55;5.05;;;3.13;;
80255;SDS011;69564;37.974;23.708;2023-05-10T01:45:28;3.58;;;3.05;;
80255;SDS011;69564;37.974;23.708;2023-05-10T01:48:02;3.65;;;2.80;;
80255;SDS011;69564;37.974;23.708;2023-05-10T01:50:31;3.40;;;2.95;;
80255;SDS011;69564;37.974;23.708;2023-05-10T01:53:00;3.70;;;2.83;;
80255;SDS011;69564;37.974;23.708;2023-05-10T01:55:30;4.35;;;2.40;;
80255;SDS011;69564;37.974;23.708;2023-05-10T01:58:02;2.60;;;2.40;;
80255;SDS011;69564;37.974;23.708;2023-05-10T02:00:33;3.33;;;2.67;;
80255;SDS011;69564;37.974;23.708;2023-05-10T02:03:01;5.47;;;2.80;;
80255;SDS011;69564;37.974;23.708;2023-05-10T02:05:31;2.80;;;2.60;;
80255;SDS011;69564;37.974;23.708;2023-05-10T02:07:59;3.30;;;2.53;;
80255;SDS011;69564;37.974;23.708;2023-05-10T02:10:27;3.83;;;2.60;;
80255;SDS011;69564;37.974;23.708;2023-05-10T02:12:54;4.95;;;2.40;;
80255;SDS011;69564;37.974;23.708;2023-05-10T02:15:23;3.00;;;2.58;;
80255;SDS011;69564;37.974;23.708;2023-05-10T02:17:51;2.65;;;2.45;;
80255;SDS011;69564;37.974;23.708;2023-05-10T02:20:19;2.38;;;2.15;;
80255;SDS011;69564;37.974;23.708;2023-05-10T02:22:47;2.50;;;2.30;;
80255;SDS011;69564;37.974;23.708;2023-05-10T02:25:15;4.18;;;2.03;;
80255;SDS011;69564;37.974;23.708;2023-05-10T02:27:44;6.72;;;2.60;;
80255;SDS011;69564;37.974;23.708;2023-05-10T02:30:11;4.47;;;2.53;;
80255;SDS011;69564;37.974;23.708;2023-05-10T02:32:37;3.78;;;2.15;;
80255;SDS011;69564;37.974;23.708;2023-05-10T02:35:04;2.97;;;2.10;;
80255;SDS011;69564;37.974;23.708;2023-05-10T02:37:31;3.90;;;2.20;;
80255;SDS011;69564;37.974;23.708;2023-05-10T02:39:58;4.53;;;2.78;;
80255;SDS011;69564;37.974;23.708;2023-05-10T02:42:25;3.97;;;2.50;;
80255;SDS011;69564;37.974;23.708;2023-05-10T02:44:53;5.60;;;2.60;;
80255;SDS011;69564;37.974;23.708;2023-05-10T02:47:21;3.92;;;2.30;;
80255;SDS011;69564;37.974;23.708;2023-05-10T02:49:47;3.72;;;2.65;;
80255;SDS011;69564;37.974;23.708;2023-05-10T02:52:15;4.32;;;2.28;;
80255;SDS011;69564;37.974;23.708;2023-05-10T02:54:45;3.78;;;2.20;;
80255;SDS011;69564;37.974;23.708;2023-05-10T02:57:16;3.70;;;2.45;;
80255;SDS011;69564;37.974;23.708;2023-05-10T02:59:45;4.28;;;2.10;;
80255;SDS011;69564;37.974;23.708;2023-05-10T03:02:14;3.03;;;2.05;;
80255;SDS011;69564;37.974;23.708;2023-05-10T03:04:40;5.18;;;2.92;;
80255;SDS011;69564;37.974;23.708;2023-05-10T03:07:05;4.43;;;2.30;;
80255;SDS011;69564;37.974;23.708;2023-05-10T03:09:32;2.10;;;1.90;;
80255;SDS011;69564;37.974;23.708;2023-05-10T03:15:11;2.50;;;1.90;;
80255;SDS011;69564;37.974;23.708;2023-05-10T03:20:16;3.58;;;2.05;;
80255;SDS011;69564;37.974;23.708;2023-05-10T03:22:51;3.92;;;2.15;;
80255;SDS011;69564;37.974;23.708;2023-05-10T03:25:20;3.63;;;2.20;;
80255;SDS011;69564;37.974;23.708;2023-05-10T03:27:47;2.88;;;2.30;;
80255;SDS011;69564;37.974;23.708;2023-05-10T03:30:14;3.22;;;2.10;;
80255;SDS011;69564;37.974;23.708;2023-05-10T03:32:41;2.35;;;2.15;;
80255;SDS011;69564;37.974;23.708;2023-05-10T03:35:11;2.67;;;1.83;;
80255;SDS011;69564;37.974;23.708;2023-05-10T03:37:38;5.20;;;2.40;;
80255;SDS011;69564;37.974;23.708;2023-05-10T03:40:04;2.38;;;1.75;;
80255;SDS011;69564;37.974;23.708;2023-05-10T03:42:30;5.72;;;2.40;;
80255;SDS011;69564;37.974;23.708;2023-05-10T03:44:56;3.97;;;2.13;;
80255;SDS011;69564;37.974;23.708;2023-05-10T03:47:22;2.50;;;1.92;;
80255;SDS011;69564;37.974;23.708;2023-05-10T03:49:47;2.20;;;1.90;;
80255;SDS011;69564;37.974;23.708;2023-05-10T03:52:13;3.70;;;1.90;;
80255;SDS011;69564;37.974;23.708;2023-05-10T03:54:39;3.97;;;2.10;;
80255;SDS011;69564;37.974;23.708;2023-05-10T03:57:05;5.00;;;2.40;;
80255;SDS011;69564;37.974;23.708;2023-05-10T03:59:30;4.50;;;2.00;;
80255;SDS011;69564;37.974;23.708;2023-05-10T04:01:56;5.10;;;2.13;;
80255;SDS011;69564;37.974;23.708;2023-05-10T04:04:22;2.50;;;2.03;;
80255;SDS011;69564;37.974;23.708;2023-05-10T04:06:48;4.07;;;1.92;;
80255;SDS011;69564;37.974;23.708;2023-05-10T04:09:14;3.38;;;2.00;;
80255;SDS011;69564;37.974;23.708;2023-05-10T04:11:41;3.15;;;2.30;;
80255;SDS011;69564;37.974;23.708;2023-05-10T04:14:06;2.85;;;2.22;;
80255;SDS011;69564;37.974;23.708;2023-05-10T04:16:32;3.45;;;2.22;;
80255;SDS011;69564;37.974;23.708;2023-05-10T04:18:58;2.58;;;2.30;;
80255;SDS011;69564;37.974;23.708;2023-05-10T04:21:24;9.98;;;2.80;;
80255;SDS011;69564;37.974;23.708;2023-05-10T04:23:50;12.38;;;3.10;;
80255;SDS011;69564;37.974;23.708;2023-05-10T04:26:16;9.88;;;2.55;;
80255;SDS011;69564;37.974;23.708;2023-05-10T04:28:41;10.50;;;3.08;;
80255;SDS011;69564;37.974;23.708;2023-05-10T04:31:08;9.35;;;2.83;;
80255;SDS011;69564;37.974;23.708;2023-05-10T04:33:35;7.47;;;2.90;;
80255;SDS011;69564;37.974;23.708;2023-05-10T04:36:01;8.07;;;2.67;;
80255;SDS011;69564;37.974;23.708;2023-05-10T04:38:28;8.77;;;3.15;;
80255;SDS011;69564;37.974;23.708;2023-05-10T04:40:54;3.92;;;2.28;;
80255;SDS011;69564;37.974;23.708;2023-05-10T04:43:28;5.07;;;2.38;;
80255;SDS011;69564;37.974;23.708;2023-05-10T04:45:56;5.53;;;2.30;;
80255;SDS011;69564;37.974;23.708;2023-05-10T04:48:23;12.07;;;2.80;;
80255;SDS011;69564;37.974;23.708;2023-05-10T04:50:48;5.38;;;2.83;;
80255;SDS011;69564;37.974;23.708;2023-05-10T04:53:14;4.32;;;2.50;;
80255;SDS011;69564;37.974;23.708;2023-05-10T04:55:40;5.15;;;2.25;;
80255;SDS011;69564;37.974;23.708;2023-05-10T04:58:05;5.03;;;2.50;;
80255;SDS011;69564;37.974;23.708;2023-05-10T05:00:32;4.78;;;2.28;;
80255;SDS011;69564;37.974;23.708;2023-05-10T05:02:59;3.10;;;2.30;;
80255;SDS011;69564;37.974;23.708;2023-05-10T05:05:24;4.25;;;2.40;;
80255;SDS011;69564;37.974;23.708;2023-05-10T05:07:50;4.43;;;2.55;;
80255;SDS011;69564;37.974;23.708;2023-05-10T05:10:16;3.28;;;2.13;;
80255;SDS011;69564;37.974;23.708;2023-05-10T05:12:42;4.25;;;2.35;;
80255;SDS011;69564;37.974;23.708;2023-05-10T05:15:07;2.50;;;2.30;;
80255;SDS011;69564;37.974;23.708;2023-05-10T05:17:34;5.85;;;2.50;;
80255;SDS011;69564;37.974;23.708;2023-05-10T05:20:01;2.97;;;2.22;;
80255;SDS011;69564;37.974;23.708;2023-05-10T05:22:27;4.15;;;2.30;;
80255;SDS011;69564;37.974;23.708;2023-05-10T05:24:56;5.60;;;2.40;;
80255;SDS011;69564;37.974;23.708;2023-05-10T05:27:23;3.55;;;2.30;;
80255;SDS011;69564;37.974;23.708;2023-05-10T05:29:54;2.55;;;2.35;;
80255;SDS011;69564;37.974;23.708;2023-05-10T05:32:20;3.00;;;1.95;;
80255;SDS011;69564;37.974;23.708;2023-05-10T05:34:46;5.32;;;2.20;;
80255;SDS011;69564;37.974;23.708;2023-05-10T05:37:15;3.42;;;2.05;;
80255;SDS011;69564;37.974;23.708;2023-05-10T05:39:43;2.60;;;2.17;;
80255;SDS011;69564;37.974;23.708;2023-05-10T05:42:09;4.05;;;2.53;;
80255;SDS011;69564;37.974;23.708;2023-05-10T05:44:35;2.30;;;2.08;;
80255;SDS011;69564;37.974;23.708;2023-05-10T05:47:01;3.72;;;2.33;;
80255;SDS011;69564;37.974;23.708;2023-05-10T05:49:27;4.45;;;2.38;;
80255;SDS011;69564;37.974;23.708;2023-05-10T05:51:53;2.88;;;1.90;;
80255;SDS011;69564;37.974;23.708;2023-05-10T05:54:18;3.40;;;2.10;;
80255;SDS011;69564;37.974;23.708;2023-05-10T05:56:44;5.25;;;2.30;;
80255;SDS011;69564;37.974;23.708;2023-05-10T05:59:10;3.58;;;2.33;;
80255;SDS011;69564;37.974;23.708;2023-05-10T06:01:36;2.58;;;1.95;;
80255;SDS011;69564;37.974;23.708;2023-05-10T06:04:02;3.13;;;2.05;;
80255;SDS011;69564;37.974;23.708;2023-05-10T06:06:28;2.53;;;2.03;;
80255;SDS011;69564;37.974;23.708;2023-05-10T06:08:53;2.92;;;2.10;;
80255;SDS011;69564;37.974;23.708;2023-05-10T06:11:19;2.42;;;2.15;;
80255;SDS011;69564;37.974;23.708;2023-05-10T06:13:46;2.72;;;2.25;;
80255;SDS011;69564;37.974;23.708;2023-05-10T06:16:12;2.75;;;1.70;;
80255;SDS011;69564;37.974;23.708;2023-05-10T06:18:38;3.25;;;2.08;;
80255;SDS011;69564;37.974;23.708;2023-05-10T06:21:04;2.17;;;2.00;;
80255;SDS011;69564;37.974;23.708;2023-05-10T06:23:30;2.53;;;2.38;;
80255;SDS011;69564;37.974;23.708;2023-05-10T06:25:56;3.25;;;2.13;;
80255;SDS011;69564;37.974;23.708;2023-05-10T06:28:21;2.45;;;2.05;;
80255;SDS011;69564;37.974;23.708;2023-05-10T06:30:47;3.85;;;2.30;;
80255;SDS011;69564;37.974;23.708;2023-05-10T06:33:13;2.40;;;2.20;;
80255;SDS011;69564;37.974;23.708;2023-05-10T06:35:40;2.67;;;2.20;;
80255;SDS011;69564;37.974;23.708;2023-05-10T06:38:09;2.67;;;2.00;;
80255;SDS011;69564;37.974;23.708;2023-05-10T06:40:34;2.72;;;2.08;;
80255;SDS011;69564;37.974;23.708;2023-05-10T06:43:01;4.13;;;2.20;;
80255;SDS011;69564;37.974;23.708;2023-05-10T06:45:26;2.80;;;2.20;;
80255;SDS011;69564;37.974;23.708;2023-05-10T06:47:52;2.78;;;2.40;;
80255;SDS011;69564;37.974;23.708;2023-05-10T06:50:18;2.67;;;2.00;;
80255;SDS011;69564;37.974;23.708;2023-05-10T06:52:52;2.45;;;2.00;;
80255;SDS011;69564;37.974;23.708;2023-05-10T06:55:18;4.43;;;2.45;;
80255;SDS011;69564;37.974;23.708;2023-05-10T06:57:44;3.08;;;2.03;;
80255;SDS011;69564;37.974;23.708;2023-05-10T07:00:10;3.08;;;1.92;;
80255;SDS011;69564;37.974;23.708;2023-05-10T07:02:36;2.25;;;1.85;;
80255;SDS011;69564;37.974;23.708;2023-05-10T07:05:04;2.22;;;2.03;;
80255;SDS011;69564;37.974;23.708;2023-05-10T07:07:36;3.22;;;1.92;;
80255;SDS011;69564;37.974;23.708;2023-05-10T07:10:11;2.60;;;2.10;;
80255;SDS011;69564;37.974;23.708;2023-05-10T07:12:41;2.13;;;1.92;;
80255;SDS011;69564;37.974;23.708;2023-05-10T07:15:07;3.20;;;1.92;;
80255;SDS011;69564;37.974;23.708;2023-05-10T07:17:33;2.83;;;2.08;;
80255;SDS011;69564;37.974;23.708;2023-05-10T07:19:59;3.63;;;2.08;;
80255;SDS011;69564;37.974;23.708;2023-05-10T07:22:25;3.35;;;2.05;;
80255;SDS011;69564;37.974;23.708;2023-05-10T07:24:51;3.15;;;2.20;;
80255;SDS011;69564;37.974;23.708;2023-05-10T07:27:17;2.58;;;2.10;;
80255;SDS011;69564;37.974;23.708;2023-05-10T07:29:43;2.60;;;2.22;;
80255;SDS011;69564;37.974;23.708;2023-05-10T07:32:08;2.10;;;1.90;;
80255;SDS011;69564;37.974;23.708;2023-05-10T07:34:34;3.72;;;2.30;;
80255;SDS011;69564;37.974;23.708;2023-05-10T07:37:00;5.18;;;2.50;;
80255;SDS011;69564;37.974;23.708;2023-05-10T07:39:29;3.40;;;2.60;;
80255;SDS011;69564;37.974;23.708;2023-05-10T07:41:55;4.55;;;2.42;;
80255;SDS011;69564;37.974;23.708;2023-05-10T07:44:21;3.08;;;2.20;;
80255;SDS011;69564;37.974;23.708;2023-05-10T07:46:52;4.57;;;2.38;;
80255;SDS011;69564;37.974;23.708;2023-05-10T07:49:30;3.70;;;2.35;;
80255;SDS011;69564;37.974;23.708;2023-05-10T07:51:58;2.92;;;2.38;;
80255;SDS011;69564;37.974;23.708;2023-05-10T07:54:27;3.65;;;2.10;;
80255;SDS011;69564;37.974;23.708;2023-05-10T07:57:00;5.57;;;2.10;;
80255;SDS011;69564;37.974;23.708;2023-05-10T07:59:26;3.88;;;2.30;;
80255;SDS011;69564;37.974;23.708;2023-05-10T08:01:52;3.33;;;2.60;;
80255;SDS011;69564;37.974;23.708;2023-05-10T08:04:18;4.45;;;2.50;;
80255;SDS011;69564;37.974;23.708;2023-05-10T08:06:43;3.85;;;2.55;;
80255;SDS011;69564;37.974;23.708;2023-05-10T08:09:09;2.80;;;2.47;;
80255;SDS011;69564;37.974;23.708;2023-05-10T08:11:38;2.60;;;2.35;;
80255;SDS011;69564;37.974;23.708;2023-05-10T08:14:04;2.53;;;2.15;;
80255;SDS011;69564;37.974;23.708;2023-05-10T08:16:32;3.25;;;2.35;;
80255;SDS011;69564;37.974;23.708;2023-05-10T08:18:59;3.53;;;2.45;;
80255;SDS011;69564;37.974;23.708;2023-05-10T08:21:25;2.70;;;2.15;;
80255;SDS011;69564;37.974;23.708;2023-05-10T08:23:53;3.25;;;2.40;;
80255;SDS011;69564;37.974;23.708;2023-05-10T08:26:19;2.63;;;2.25;;
80255;SDS011;69564;37.974;23.708;2023-05-10T08:28:46;4.57;;;2.50;;
80255;SDS011;69564;37.974;23.708;2023-05-10T08:31:12;4.43;;;2.50;;
80255;SDS011;69564;37.974;23.708;2023-05-10T08:33:38;3.17;;;2.17;;
80255;SDS011;69564;37.974;23.708;2023-05-10T08:36:03;3.45;;;2.17;;
80255;SDS011;69564;37.974;23.708;2023-05-10T08:38:29;4.90;;;2.80;;
80255;SDS011;69564;37.974;23.708;2023-05-10T08:40:55;2.40;;;2.20;;
80255;SDS011;69564;37.974;23.708;2023-05-10T08:43:27;5.97;;;2.25;;
80255;SDS011;69564;37.974;23.708;2023-05-10T08:45:54;2.78;;;2.15;;
80255;SDS011;69564;37.974;23.708;2023-05-10T08:48:38;3.42;;;2.25;;
80255;SDS011;69564;37.974;23.708;2023-05-10T08:51:04;2.72;;;2.20;;
80255;SDS011;69564;37.974;23.708;2023-05-10T08:53:33;2.60;;;2.40;;
80255;SDS011;69564;37.974;23.708;2023-05-10T08:56:02;2.67;;;2.20;;
80255;SDS011;69564;37.974;23.708;2023-05-10T08:58:29;2.97;;;2.10;;
80255;SDS011;69564;37.974;23.708;2023-05-10T09:00:55;2.65;;;2.08;;
80255;SDS011;69564;37.974;23.708;2023-05-10T09:03:32;2.22;;;2.03;;
80255;SDS011;69564;37.974;23.708;2023-05-10T09:06:00;2.50;;;2.30;;
80255;SDS011;69564;37.974;23.708;2023-05-10T09:08:29;2.50;;;1.92;;
80255;SDS011;69564;37.974;23.708;2023-05-10T09:10:56;2.33;;;2.13;;
80255;SDS011;69564;37.974;23.708;2023-05-10T09:13:24;3.45;;;1.92;;
80255;SDS011;69564;37.974;23.708;2023-05-10T09:15:51;2.78;;;2.15;;
80255;SDS011;69564;37.974;23.708;2023-05-10T09:18:17;2.95;;;2.20;;
80255;SDS011;69564;37.974;23.708;2023-05-10T09:20:43;2.85;;;2.60;;
80255;SDS011;69564;37.974;23.708;2023-05-10T09:23:09;2.75;;;2.20;;
80255;SDS011;69564;37.974;23.708;2023-05-10T09:25:35;3.85;;;2.38;;
80255;SDS011;69564;37.974;23.708;2023-05-10T09:28:05;2.38;;;2.03;;
80255;SDS011;69564;37.974;23.708;2023-05-10T09:30:33;2.83;;;1.95;;
80255;SDS011;69564;37.974;23.708;2023-05-10T09:33:00;4.45;;;2.60;;
80255;SDS011;69564;37.974;23.708;2023-05-10T09:35:27;4.28;;;2.33;;
80255;SDS011;69564;37.974;23.708;2023-05-10T09:37:55;3.47;;;2.58;;
80255;SDS011;69564;37.974;23.708;2023-05-10T09:40:26;5.15;;;2.50;;
80255;SDS011;69564;37.974;23.708;2023-05-10T09:45:47;4.75;;;2.50;;
80255;SDS011;69564;37.974;23.708;2023-05-10T09:48:16;2.67;;;1.98;;
80255;SDS011;69564;37.974;23.708;2023-05-10T09:50:41;2.42;;;1.90;;
80255;SDS011;69564;37.974;23.708;2023-05-10T09:53:07;4.07;;;1.98;;
80255;SDS011;69564;37.974;23.708;2023-05-10T09:55:43;2.42;;;2.10;;
80255;SDS011;69564;37.974;23.708;2023-05-10T09:58:13;2.90;;;2.28;;
80255;SDS011;69564;37.974;23.708;2023-05-10T10:00:40;2.47;;;1.95;;
80255;SDS011;69564;37.974;23.708;2023-05-10T10:03:13;4.35;;;2.17;;
80255;SDS011;69564;37.974;23.708;2023-05-10T10:05:41;2.55;;;1.83;;
80255;SDS011;69564;37.974;23.708;2023-05-10T10:08:08;3.38;;;2.17;;
80255;SDS011;69564;37.974;23.708;2023-05-10T10:10:34;2.25;;;1.92;;
80255;SDS011;69564;37.974;23.708;2023-05-10T10:13:01;2.40;;;2.20;;
80255;SDS011;69564;37.974;23.708;2023-05-10T10:16:00;3.80;;;2.15;;
80255;SDS011;69564;37.974;23.708;2023-05-10T10:18:25;2.00;;;1.80;;
80255;SDS011;69564;37.974;23.708;2023-05-10T10:20:54;3.20;;;2.10;;
80255;SDS011;69564;37.974;23.708;2023-05-10T10:23:42;2.60;;;1.90;;
80255;SDS011;69564;37.974;23.708;2023-05-10T10:26:18;3.42;;;1.95;;
80255;SDS011;69564;37.974;23.708;2023-05-10T10:28:56;3.22;;;2.00;;
80255;SDS011;69564;37.974;23.708;2023-05-10T10:31:46;4.45;;;1.67;;
80255;SDS011;69564;37.974;23.708;2023-05-10T10:34:26;2.55;;;2.00;;
80255;SDS011;69564;37.974;23.708;2023-05-10T10:36:54;2.33;;;1.88;;
80255;SDS011;69564;37.974;23.708;2023-05-10T10:39:21;2.70;;;2.00;;
80255;SDS011;69564;37.974;23.708;2023-05-10T10:41:51;2.63;;;2.00;;
80255;SDS011;69564;37.974;23.708;2023-05-10T10:49:33;3.53;;;2.15;;
80255;SDS011;69564;37.974;23.708;2023-05-10T10:52:25;3.25;;;1.98;;
80255;SDS011;69564;37.974;23.708;2023-05-10T10:55:13;2.53;;;1.80;;
80255;SDS011;69564;37.974;23.708;2023-05-10T11:00:47;3.45;;;2.00;;
80255;SDS011;69564;37.974;23.708;2023-05-10T11:03:05;2.15;;;1.90;;
80255;SDS011;69564;37.974;23.708;2023-05-10T11:05:36;2.28;;;2.08;;
80255;SDS011;69564;37.974;23.708;2023-05-10T11:13:29;2.60;;;2.00;;
80255;SDS011;69564;37.974;23.708;2023-05-10T11:16:18;4.03;;;1.90;;
80255;SDS011;69564;37.974;23.708;2023-05-10T11:19:18;5.25;;;2.08;;
80255;SDS011;69564;37.974;23.708;2023-05-10T11:21:45;2.80;;;2.10;;
80255;SDS011;69564;37.974;23.708;2023-05-10T11:24:38;2.15;;;1.80;;
80255;SDS011;69564;37.974;23.708;2023-05-10T11:27:03;2.17;;;1.88;;
80255;SDS011;69564;37.974;23.708;2023-05-10T11:29:30;2.08;;;1.88;;
80255;SDS011;69564;37.974;23.708;2023-05-10T11:31:56;2.15;;;1.70;;
80255;SDS011;69564;37.974;23.708;2023-05-10T11:34:24;2.28;;;1.98;;
80255;SDS011;69564;37.974;23.708;2023-05-10T11:36:53;3.15;;;2.20;;
80255;SDS011;69564;37.974;23.708;2023-05-10T11:39:20;2.67;;;2.13;;
80255;SDS011;69564;37.974;23.708;2023-05-10T11:41:49;2.00;;;1.83;;
80255;SDS011;69564;37.974;23.708;2023-05-10T11:44:15;3.10;;;1.92;;
80255;SDS011;69564;37.974;23.708;2023-05-10T11:46:41;2.22;;;1.73;;
80255;SDS011;69564;37.974;23.708;2023-05-10T11:49:07;2.47;;;1.80;;
80255;SDS011;69564;37.974;23.708;2023-05-10T11:51:33;2.25;;;2.00;;
80255;SDS011;69564;37.974;23.708;2023-05-10T11:54:07;2.50;;;2.25;;
80255;SDS011;69564;37.974;23.708;2023-05-10T11:56:34;2.50;;;2.05;;
80255;SDS011;69564;37.974;23.708;2023-05-10T11:59:00;2.63;;;1.90;;
80255;SDS011;69564;37.974;23.708;2023-05-10T12:01:27;3.75;;;2.20;;
80255;SDS011;69564;37.974;23.708;2023-05-10T12:03:54;2.35;;;2.10;;
80255;SDS011;69564;37.974;23.708;2023-05-10T12:06:28;1.90;;;1.80;;
80255;SDS011;69564;37.974;23.708;2023-05-10T12:08:56;2.95;;;2.30;;
80255;SDS011;69564;37.974;23.708;2023-05-10T12:11:25;2.50;;;2.40;;
80255;SDS011;69564;37.974;23.708;2023-05-10T12:13:53;3.10;;;2.13;;
80255;SDS011;69564;37.974;23.708;2023-05-10T12:16:21;2.22;;;2.13;;
80255;SDS011;69564;37.974;23.708;2023-05-10T12:18:49;2.35;;;1.98;;
80255;SDS011;69564;37.974;23.708;2023-05-10T12:21:19;2.05;;;1.95;;
80255;SDS011;69564;37.974;23.708;2023-05-10T12:23:46;3.65;;;2.20;;
80255;SDS011;69564;37.974;23.708;2023-05-10T12:26:24;2.08;;;1.98;;
80255;SDS011;69564;37.974;23.708;2023-05-10T12:28:52;3.22;;;2.25;;
80255;SDS011;69564;37.974;23.708;2023-05-10T12:31:55;2.60;;;2.00;;
80255;SDS011;69564;37.974;23.708;2023-05-10T12:34:32;2.33;;;2.03;;
80255;SDS011;69564;37.974;23.708;2023-05-10T12:37:00;3.50;;;2.42;;
80255;SDS011;69564;37.974;23.708;2023-05-10T12:39:26;3.05;;;2.08;;
80255;SDS011;69564;37.974;23.708;2023-05-10T12:42:02;2.33;;;2.13;;
80255;SDS011;69564;37.974;23.708;2023-05-10T12:44:28;2.28;;;1.95;;
80255;SDS011;69564;37.974;23.708;2023-05-10T12:46:54;2.60;;;2.15;;
80255;SDS011;69564;37.974;23.708;2023-05-10T12:49:19;2.67;;;2.05;;
80255;SDS011;69564;37.974;23.708;2023-05-10T12:51:45;2.67;;;1.92;;
80255;SDS011;69564;37.974;23.708;2023-05-10T12:54:11;3.28;;;2.10;;
80255;SDS011;69564;37.974;23.708;2023-05-10T12:56:36;2.35;;;1.90;;
80255;SDS011;69564;37.974;23.708;2023-05-10T12:59:02;3.72;;;2.08;;
80255;SDS011;69564;37.974;23.708;2023-05-10T13:01:28;2.42;;;2.22;;
80255;SDS011;69564;37.974;23.708;2023-05-10T13:03:54;2.00;;;1.90;;
80255;SDS011;69564;37.974;23.708;2023-05-10T13:06:19;2.72;;;2.08;;
80255;SDS011;69564;37.974;23.708;2023-05-10T13:08:45;2.95;;;2.00;;
80255;SDS011;69564;37.974;23.708;2023-05-10T13:11:11;2.10;;;1.90;;
80255;SDS011;69564;37.974;23.708;2023-05-10T13:13:36;2.25;;;2.05;;
80255;SDS011;69564;37.974;23.708;2023-05-10T13:16:02;3.28;;;2.20;;
80255;SDS011;69564;37.974;23.708;2023-05-10T13:18:28;3.10;;;2.50;;
80255;SDS011;69564;37.974;23.708;2023-05-10T13:20:54;2.42;;;2.22;;
80255;SDS011;69564;37.974;23.708;2023-05-10T13:23:20;3.53;;;2.72;;
80255;SDS011;69564;37.974;23.708;2023-05-10T13:25:46;2.80;;;2.08;;
80255;SDS011;69564;37.974;23.708;2023-05-10T13:28:12;2.45;;;2.10;;
80255;SDS011;69564;37.974;23.708;2023-05-10T13:30:37;2.10;;;1.95;;
80255;SDS011;69564;37.974;23.708;2023-05-10T13:33:03;2.35;;;2.15;;
80255;SDS011;69564;37.974;23.708;2023-05-10T13:35:28;2.63;;;2.17;;
80255;SDS011;69564;37.974;23.708;2023-05-10T13:37:54;2.90;;;2.28;;
80255;SDS011;69564;37.974;23.708;2023-05-10T13:40:22;2.00;;;1.88;;
80255;SDS011;69564;37.974;23.708;2023-05-10T13:42:48;2.60;;;2.38;;
80255;SDS011;69564;37.974;23.708;2023-05-10T13:45:13;2.95;;;2.00;;
80255;SDS011;69564;37.974;23.708;2023-05-10T13:47:39;3.55;;;2.20;;
80255;SDS011;69564;37.974;23.708;2023-05-10T13:50:06;3.67;;;2.33;;
80255;SDS011;69564;37.974;23.708;2023-05-10T13:52:32;3.97;;;3.50;;
80255;SDS011;69564;37.974;23.708;2023-05-10T13:54:57;6.38;;;5.53;;
80255;SDS011;69564;37.974;23.708;2023-05-10T13:57:23;9.43;;;7.78;;
80255;SDS011;69564;37.974;23.708;2023-05-10T13:59:49;13.07;;;10.32;;
80255;SDS011;69564;37.974;23.708;2023-05-10T14:02:15;21.67;;;19.48;;
80255;SDS011;69564;37.974;23.708;2023-05-10T14:04:41;22.15;;;18.98;;
80255;SDS011;69564;37.974;23.708;2023-05-10T14:07:06;21.73;;;19.42;;
80255;SDS011;69564;37.974;23.708;2023-05-10T14:09:32;24.17;;;21.45;;
80255;SDS011;69564;37.974;23.708;2023-05-10T14:11:58;28.02;;;23.33;;
80255;SDS011;69564;37.974;23.708;2023-05-10T14:14:23;25.30;;;22.60;;
80255;SDS011;69564;37.974;23.708;2023-05-10T14:16:49;25.98;;;23.17;;
80255;SDS011;69564;37.974;23.708;2023-05-10T14:19:15;25.20;;;21.58;;
80255;SDS011;69564;37.974;23.708;2023-05-10T14:21:41;22.83;;;19.88;;
80255;SDS011;69564;37.974;23.708;2023-05-10T14:24:08;19.38;;;17.38;;
80255;SDS011;69564;37.974;23.708;2023-05-10T14:26:33;17.42;;;14.57;;
80255;SDS011;69564;37.974;23.708;2023-05-10T14:28:59;15.90;;;12.82;;
80255;SDS011;69564;37.974;23.708;2023-05-10T14:31:25;13.93;;;11.85;;
80255;SDS011;69564;37.974;23.708;2023-05-10T14:33:51;13.70;;;11.50;;
80255;SDS011;69564;37.974;23.708;2023-05-10T14:36:17;11.45;;;10.00;;
80255;SDS011;69564;37.974;23.708;2023-05-10T14:38:43;11.50;;;9.77;;
80255;SDS011;69564;37.974;23.708;2023-05-10T14:41:08;11.48;;;9.43;;
80255;SDS011;69564;37.974;23.708;2023-05-10T14:43:38;8.90;;;7.93;;
80255;SDS011;69564;37.974;23.708;2023-05-10T14:46:04;8.35;;;7.53;;
80255;SDS011;69564;37.974;23.708;2023-05-10T14:48:30;8.05;;;6.45;;
80255;SDS011;69564;37.974;23.708;2023-05-10T14:50:56;8.02;;;6.60;;
80255;SDS011;69564;37.974;23.708;2023-05-10T14:53:22;6.35;;;5.68;;
80255;SDS011;69564;37.974;23.708;2023-05-10T14:55:47;7.03;;;5.60;;
80255;SDS011;69564;37.974;23.708;2023-05-10T14:58:13;5.10;;;4.50;;
80255;SDS011;69564;37.974;23.708;2023-05-10T15:00:40;5.88;;;4.80;;
80255;SDS011;69564;37.974;23.708;2023-05-10T15:03:06;6.40;;;4.63;;
80255;SDS011;69564;37.974;23.708;2023-05-10T15:05:31;4.45;;;4.05;;